航空気象通報

ウインドサーファーのための航空気象通報による風予報です。

6/30-7/1の航空気象通報(国内、海外)

2010年06月30日 23時53分53秒 | TAF
羽田空港
TAF RJTT 300843Z 3009/0112 11006KT 9999 FEW020
BECMG 3015/3017 27004KT
TEMPO 3018/3024 4500 BR
BECMG 0100/0103 16010KT
日本時間30日18-24時:110度から6ノットの風
1日00-02時:風が変化
02-09時:270度から4ノットの風
09-12時:風が変化
12-21時:160度から10ノットの風

但し、1日03-09時の間:一時、もや

富士山静岡空港
TAF RJNS 300848Z 3009/0112 07005KT 9999 FEW010 SCT030
BECMG 3009/3011 24004KT
TEMPO 3015/3021 4000 BR FEW003 BKN007
日本時間30日18時:070度から5ノットの風
18-20時:風が変化
20時-1日21時:240度から4ノットの風

但し、1日00-06時の間:一時、もや

那覇空港
TAF ROAH 300836Z 3009/0112 20010KT 9999 SCT015
日本時間30日18時-1日21時:200度から10ノットの風


マウイのカフルイ空港
TAF PHOG 301120Z 3012/0112 05008KT P6SM SCT050
FM302000 05018G28KT P6SM SCT050
FM010800 04012KT P6SM SCT050
FM011000 05008KT P6SM SCT050
ハワイ時間30日02-10時:050度から8ノットの風
10-22時:050度から18ノット、突風28ノット
22時-1日01時:040度から12ノットの風
01-02時:050度から8ノットの風


サイパン空港
TAF PGSN 301120Z 3012/0112 10009KT P6SM VCSH FEW020 SCT120
マリアナ時間30日22時-1日22時:100度から9ノットの風

コメント
この記事をはてなブックマークに追加

6/29-6/30の航空気象通報(国内、海外)

2010年06月29日 22時55分04秒 | TAF
羽田空港
TAF AMD RJTT 291246Z 2912/3012 07012KT 8000 FEW010 BKN020
TEMPO 2912/2915 4000 TSRA BR FEW004 BKN006 BKN015 FEW020CB
BECMG 2913/2915 02008KT
TEMPO 2918/2924 4000 -SHRA BR FEW005 BKN009
TEMPO 3000/3003 4000 BR FEW005 BKN009
BECMG 3003/3006 14006KT
日本時間29日21-22時:070度から12ノットの風
22-24時:風が変化
30日00-12時:020度から8ノットの風
12-15時:風が変化
15-21時:140度から6ノットの風

但し、29日21-24時の間:一時、
但し、30日03-09時の間:一時、
但し、30日09-12時の間:一時、もや

富士山静岡空港
TAF RJNS 290844Z 2909/3012 25012KT 9999 FEW030
日本時間29日18時-30日21時:250度から12ノットの風


那覇空港
TAF ROAH 290843Z 2909/3012 19009KT 9999 SCT015
日本時間29日18時-30日21時:190度から9ノットの風


マウイのカフルイ空港
PHOG 291120Z 2912/3012 06008KT P6SM SCT050
FM292000 05015G25KT P6SM SCT050
FM300800 06008KT P6SM SCT050
ハワイ時間29日02-10時:060度から8ノットの風
10-20時:050度から15ノット、突風25ノット
20時-30日02時:060度から8ノットの風


サイパン空港
PGSN 291120Z 2912/3012 07008KT P6SM VCSH SCT020
マリアナ時間29日22時-30日22時:070度から8ノットの風

コメント
この記事をはてなブックマークに追加

6/28-6/29の航空気象通報(国内、海外)

2010年06月28日 22時35分26秒 | TAF
羽田空港
TAF AMD RJTT 281009Z 2810/2912 14006KT 8000 FEW015 SCT030
BECMG 2811/2813 04006KT
BECMG 2818/2821 08004KT
BECMG 2903/2906 16010KT
日本時間28日18-20時:140度から6ノットの風
20-22時:風が変化
22時-29日03時:040度から6ノットの風
03-06時:風が変化
06-12時:080度から4ノットの風
12-15時:風が変化
15-21時:160度から8ノットの風


富士山静岡空港
TAF RJNS 280847Z 2809/2912 26010KT 9999 FEW020 SCT040
日本時間28日18時-29日21時:260度から10ノットの風


那覇空港
TAF ROAH 280844Z 2809/2912 18007KT 9999 SCT015
日本時間28日18時-29日21時:180度から7ノットの風


マウイのカフルイ空港
PHOG 281120Z 2812/2912 06008KT P6SM BKN050
FM282000 04012G22KT P6SM BKN050
FM290600 06008KT P6SM SCT050
ハワイ時間28日02-10時:060度から8ノットの風
10-20時:040度から12ノット、突風22ノット
20時-29日02時:060度から8ノットの風


サイパン空港
PGSN 281120Z 2812/2912 07008KT P6SM VCSH FEW020 SCT040
マリアナ時間28日22時-29日22時:070度から8ノットの風

コメント
この記事をはてなブックマークに追加

6/27-6/28の航空気象通報(国内、海外)

2010年06月27日 21時19分48秒 | TAF
羽田空港
TAF RJTT 270837Z 2709/2812 20012KT 9999 FEW010 SCT020
BECMG 2718/2721 02005KT
TEMPO 2718/2724 4000 BR FEW005 BKN008
BECMG 2800/2803 09008KT
TEMPO 2809/2812 4000 TSRA FEW008 BKN020 FEW020CB
日本時間27日18時-28日03時:200度から12ノットの風
03-06時:風が変化
06-09時:020度から5ノットの風
09-12時:風が変化
12-21時:090度から8ノットの風

但し、28日03-09時の間:一時、もや
但し、28日09-12時の間:一時、

富士山静岡空港
TAF RJNS 270843Z 2709/2812 25012KT 7000 FEW005 SCT007 BKN010
TEMPO 2709/2712 3000 -SHRA BR BKN003 BKN005
TEMPO 2712/2721 3000 BR BKN003 BKN005
日本時間27日18時-28日21時:250度から12ノットの風

但し、27日18-21時の間:一時、
但し、27日21時-28日06時の間:一時、もや

那覇空港
TAF ROAH 270841Z 2709/2812 17010KT 9999 FEW015
日本時間27日18時-28日21時:170度から10ノットの風


マウイのカフルイ空港
PHOG 271135Z 2712/2812 VRB03KT P6SM FEW035
FM271800 04010KT P6SM SCT035
FM272000 04015G22KT P6SM SCT035 SCT050
FM280600 05008KT P6SM SCT035 SCT050
ハワイ時間27日02-08時:風向不定3ノットの風
08-10時:040度から10ノットの風
10-20時:040度から15ノット、突風22ノット
20時-28日02時:050度から8ノットの風


サイパン空港
PGSN 271120Z 2712/2812 08011KT P6SM VCSH FEW015 SCT040
マリアナ時間27日22時-28日22時:080度から11ノットの風
コメント
この記事をはてなブックマークに追加

6/26-6/27の航空気象通報(国内、海外)

2010年06月26日 20時31分32秒 | TAF
羽田空港
TAF RJTT 260844Z 2609/2712 20015KT 9999 -RA FEW010 SCT020 BKN040
TEMPO 2615/2621 20018G28KT
日本時間26日18時-27日21時:200度から15ノットの風
但し、27日00-06時:一時、200度から18ノット、突風28ノット


富士山静岡空港
TAF RJNS 260841Z 2609/2712 21006KT 8000 -SHRA FEW006 SCT010 BKN015
TEMPO 2609/2615 4000 -SHRA BR BKN007 BKN012
TEMPO 2615/2621 2000 SHRA BR BKN003 BKN010
TEMPO 2621/2703 4000 -SHRA BR BKN007 BKN012
日本時間26日18時-27日21時:210度から6ノットの風


那覇空港
TAF ROAH 260836Z 2609/2712 19012KT 9999 FEW010 SCT030
日本時間26日18時-26日21時:190度から12ノットの風


マウイのカフルイ空港
PHOG 261129Z 2612/2712 05011KT P6SM VCSH SCT030 BKN050
FM262000 04015KT P6SM SCT030 BKN060
FM270600 VRB05KT P6SM SCT030 SCT060
ハワイ時間26日03-10時:050度から11ノットの風
10-20時:040度から15ノットの風

20時-27日02時:風向不定5ノットの風


サイパン空港
PGSN 261120Z 2612/2712 09011G17KT P6SM VCSH FEW020 SCT040
マリアナ時間26日22時-27日22時:090度から11ノット、突風17ノット

コメント
この記事をはてなブックマークに追加